KMFR/MFR METAR and TAF weather

Enter ICAO airport designator
Station Type Date Time Source
KMFR METAR 2018/12/13 21:53 UTC NOAA

KMFR 132153Z 00000KT 10SM CLR 07/02 A3016 RMK AO2 SLP219 T00720017


Station Type Date Time Source
KMFR Decoded METAR 2018/12/13 21:53 UTC NOAA

ROGUE VALLEY INTERNATIONAL AIRPORT, OR, United States (KMFR) 42-23N 122-53W 396M
Dec 13, 2018 - 04:53 PM EST / 2018.12.13 2153 UTC
Wind: Calm:0
Visibility: 10 mile(s):0
Sky conditions: clear
Temperature: 45.0 F (7.2 C)
Dew Point: 35.1 F (1.7 C)
Relative Humidity: 68%
Pressure (altimeter): 30.16 in. Hg (1021 hPa)
ob: KMFR 132153Z 00000KT 10SM CLR 07/02 A3016 RMK AO2 SLP219 T00720017
cycle: 22

Station Type Date Time Source
KMFR TAF 2018/12/13 18:59 UTC NOAA

TAF KMFR 131759Z 1318/1418 00000KT 1/4SM FZFG VV003
FM132000 00000KT P6SM SKC
FM140600 15008KT P6SM SCT200 WS020/19040KT
FM141500 15012G18KT P6SM BKN090 WS020/19050KT


Example: see airport list